createdAt,value
2024-04-13T00:00:41.167Z,78.73
2024-04-13T00:03:09.493Z,78.61
2024-04-13T00:05:37.105Z,78.59
2024-04-13T00:08:04.583Z,78.74
2024-04-13T00:10:32.100Z,78.37
2024-04-13T00:13:00.730Z,78.50
2024-04-13T00:15:29.185Z,78.80
2024-04-13T00:17:59.978Z,78.93
2024-04-13T00:20:27.026Z,79.05
2024-04-13T00:22:55.198Z,78.50
2024-04-13T00:25:22.846Z,78.65
2024-04-13T00:27:50.551Z,78.41
2024-04-13T00:30:17.963Z,78.39
2024-04-13T00:32:45.552Z,78.64
2024-04-13T00:35:12.854Z,78.53
2024-04-13T00:37:40.747Z,78.63
2024-04-13T00:40:08.817Z,78.38
2024-04-13T00:42:36.004Z,78.47
2024-04-13T00:45:05.959Z,77.74
2024-04-13T00:47:35.890Z,78.23
2024-04-13T00:50:12.864Z,78.14
2024-04-13T00:52:43.244Z,78.43
2024-04-13T00:55:12.536Z,78.40
2024-04-13T00:57:41.372Z,78.45
2024-04-13T01:00:14.084Z,78.21
2024-04-13T01:02:44.831Z,78.33
2024-04-13T01:05:15.400Z,77.82
2024-04-13T01:07:43.054Z,78.35
2024-04-13T01:10:15.408Z,78.35
2024-04-13T01:12:44.781Z,78.48
2024-04-13T01:15:12.092Z,78.38
2024-04-13T01:17:39.409Z,77.93
2024-04-13T01:20:09.642Z,78.13
2024-04-13T01:22:47.007Z,78.25
2024-04-13T01:25:19.001Z,78.11
2024-04-13T01:27:46.197Z,77.59
2024-04-13T01:30:14.716Z,78.21
2024-04-13T01:32:41.903Z,77.87
2024-04-13T01:35:09.905Z,77.97
2024-04-13T01:37:41.114Z,78.04
2024-04-13T01:40:09.983Z,78.11
2024-04-13T01:42:38.077Z,78.21
2024-04-13T01:45:05.831Z,78.29
2024-04-13T01:47:33.965Z,77.80
2024-04-13T01:50:01.866Z,78.05
2024-04-13T01:52:29.121Z,77.93
2024-04-13T01:54:56.639Z,78.06
2024-04-13T01:57:24.006Z,78.25
2024-04-13T01:59:51.979Z,77.70
2024-04-13T02:02:20.528Z,77.88
2024-04-13T02:04:49.202Z,77.71
2024-04-13T02:07:16.437Z,77.97
2024-04-13T02:09:43.614Z,77.82
2024-04-13T02:12:10.894Z,77.66
2024-04-13T02:14:38.268Z,78.06
2024-04-13T02:17:06.389Z,77.71
2024-04-13T02:19:35.299Z,77.86
2024-04-13T02:22:02.261Z,78.15
2024-04-13T02:24:29.382Z,77.90
2024-04-13T02:26:56.944Z,77.65
2024-04-13T02:29:27.104Z,77.77
2024-04-13T02:31:54.351Z,77.44
2024-04-13T02:34:21.925Z,77.84
2024-04-13T02:36:49.556Z,78.09
2024-04-13T02:39:19.841Z,77.37
2024-04-13T02:41:47.021Z,77.60
2024-04-13T02:44:14.906Z,77.76
2024-04-13T02:46:42.439Z,77.80
2024-04-13T02:51:55.088Z,77.83
2024-04-13T02:54:22.678Z,77.69
2024-04-13T02:56:49.916Z,77.83
2024-04-13T02:59:16.923Z,77.61
2024-04-13T03:01:45.227Z,77.70
2024-04-13T03:04:12.657Z,78.09
2024-04-13T03:06:40.461Z,77.79
2024-04-13T03:09:09.394Z,78.25
2024-04-13T03:11:36.983Z,78.27
2024-04-13T03:14:04.188Z,77.66
2024-04-13T03:16:33.180Z,77.95
2024-04-13T03:19:00.574Z,78.00
2024-04-13T03:21:30.945Z,77.76
2024-04-13T03:23:58.566Z,77.55
2024-04-13T03:26:25.666Z,77.47
2024-04-13T03:28:52.834Z,78.11
2024-04-13T03:31:20.150Z,77.21
2024-04-13T03:33:47.186Z,77.80
2024-04-13T03:36:16.170Z,77.51
2024-04-13T03:38:43.159Z,77.75
2024-04-13T03:41:10.917Z,77.89
2024-04-13T03:43:39.115Z,78.03
2024-04-13T03:46:08.662Z,77.87
2024-04-13T03:48:44.027Z,77.44
2024-04-13T03:51:12.323Z,77.58
2024-04-13T03:53:39.914Z,77.53
2024-04-13T03:56:07.428Z,77.64
2024-04-13T03:58:34.830Z,77.47
2024-04-13T04:01:02.722Z,78.07
2024-04-13T04:03:30.810Z,77.74
2024-04-13T04:05:58.517Z,77.72
2024-04-13T04:08:25.869Z,77.74
2024-04-13T04:10:53.222Z,77.68
2024-04-13T04:13:20.476Z,77.66
2024-04-13T04:15:48.658Z,77.45
2024-04-13T04:18:16.555Z,77.50
2024-04-13T04:20:48.377Z,77.65
2024-04-13T04:23:15.385Z,77.43
2024-04-13T04:25:43.695Z,77.46
2024-04-13T04:28:13.267Z,77.50
2024-04-13T04:30:40.792Z,77.71
2024-04-13T04:33:08.452Z,77.21
2024-04-13T04:35:36.174Z,77.70
2024-04-13T04:38:03.556Z,77.14
2024-04-13T04:40:30.969Z,77.74
2024-04-13T04:42:58.203Z,77.11
2024-04-13T04:45:25.178Z,77.22
2024-04-13T04:47:52.843Z,77.11
2024-04-13T04:50:20.141Z,77.06
2024-04-13T04:52:48.345Z,77.55
2024-04-13T04:55:15.625Z,77.15
2024-04-13T04:57:43.865Z,77.16
2024-04-13T05:00:15.817Z,77.04
2024-04-13T05:02:43.967Z,77.11
2024-04-13T05:05:11.576Z,76.84
2024-04-13T05:07:39.720Z,77.34
2024-04-13T05:10:10.119Z,77.32
2024-04-13T05:12:38.046Z,77.46
2024-04-13T05:15:09.204Z,77.36
2024-04-13T05:17:37.710Z,77.19
2024-04-13T05:20:05.221Z,77.42
2024-04-13T05:22:32.205Z,77.13
2024-04-13T05:24:59.798Z,77.56
2024-04-13T05:27:27.250Z,77.04
2024-04-13T05:29:55.501Z,77.29
2024-04-13T05:32:23.371Z,77.23
2024-04-13T05:34:50.666Z,76.75
2024-04-13T05:37:17.779Z,76.82
2024-04-13T05:39:45.472Z,76.85
2024-04-13T05:42:12.883Z,76.72
2024-04-13T05:44:40.668Z,77.01
2024-04-13T05:47:08.176Z,76.79
2024-04-13T05:49:39.768Z,77.27
2024-04-13T05:52:07.353Z,77.10
2024-04-13T05:54:35.527Z,76.95
2024-04-13T05:57:02.996Z,76.67
2024-04-13T05:59:30.449Z,77.05
2024-04-13T06:01:58.909Z,77.03
2024-04-13T06:04:26.277Z,76.40
2024-04-13T06:06:53.760Z,77.01
2024-04-13T06:09:20.820Z,77.01
2024-04-13T06:11:49.164Z,76.67
2024-04-13T06:14:16.765Z,76.50
2024-04-13T06:16:46.022Z,73.34
2024-04-13T06:19:14.694Z,72.69
2024-04-13T06:21:42.142Z,72.16
2024-04-13T06:24:09.674Z,72.36
2024-04-13T06:26:36.709Z,72.19
2024-04-13T06:29:03.889Z,72.14
2024-04-13T06:31:31.482Z,71.98
2024-04-13T06:33:59.359Z,71.90
2024-04-13T06:36:27.005Z,71.70
2024-04-13T06:38:54.507Z,71.78
2024-04-13T06:41:22.129Z,71.82
2024-04-13T06:43:56.485Z,71.80
2024-04-13T06:46:23.784Z,72.93
2024-04-13T06:48:52.050Z,73.75
2024-04-13T06:51:19.424Z,74.05
2024-04-13T06:56:28.873Z,74.46
2024-04-13T06:58:56.138Z,74.42
2024-04-13T07:01:23.285Z,74.65
2024-04-13T07:03:50.266Z,74.58
2024-04-13T07:06:18.231Z,74.91
2024-04-13T07:08:45.552Z,75.00
2024-04-13T07:11:12.943Z,74.93
2024-04-13T07:13:40.248Z,75.04
2024-04-13T07:16:07.292Z,75.05
2024-04-13T07:18:34.737Z,75.14
2024-04-13T07:21:01.848Z,75.47
2024-04-13T07:23:29.205Z,75.14
2024-04-13T07:26:03.775Z,75.03
2024-04-13T07:28:33.379Z,75.00
2024-04-13T07:31:00.864Z,74.98
2024-04-13T07:33:29.254Z,75.17
2024-04-13T07:35:57.214Z,75.23
2024-04-13T07:38:26.533Z,75.19
2024-04-13T07:40:54.489Z,75.19
2024-04-13T07:43:21.906Z,74.95
2024-04-13T07:45:51.390Z,74.66
2024-04-13T07:48:19.034Z,75.31
2024-04-13T07:50:46.467Z,74.74
2024-04-13T07:53:13.794Z,74.66
2024-04-13T07:55:41.037Z,75.06
2024-04-13T07:58:08.605Z,75.02
2024-04-13T08:00:35.745Z,74.55
2024-04-13T08:03:03.186Z,74.48
2024-04-13T08:05:30.765Z,74.90
2024-04-13T08:07:57.820Z,74.84
2024-04-13T08:10:26.402Z,74.52
2024-04-13T08:12:53.552Z,74.41
2024-04-13T08:15:21.139Z,74.56
2024-04-13T08:17:48.619Z,74.41
2024-04-13T08:20:18.078Z,74.41
2024-04-13T08:22:45.995Z,74.41
2024-04-13T08:25:13.526Z,74.33
2024-04-13T08:27:40.472Z,74.13
2024-04-13T08:30:08.521Z,73.89
2024-04-13T08:32:35.593Z,73.99
2024-04-13T08:35:03.351Z,73.85
2024-04-13T08:37:30.646Z,73.76
2024-04-13T08:39:57.799Z,74.01
2024-04-13T08:42:33.734Z,74.16
2024-04-13T08:45:01.994Z,74.21
2024-04-13T08:47:30.991Z,74.38
2024-04-13T08:50:00.451Z,74.47
2024-04-13T08:52:28.790Z,74.27
2024-04-13T08:54:56.256Z,74.44
2024-04-13T08:57:30.448Z,74.43
2024-04-13T09:00:01.989Z,74.31
2024-04-13T09:02:34.737Z,74.33
2024-04-13T09:05:04.933Z,74.29
2024-04-13T09:07:34.432Z,74.09
2024-04-13T09:10:02.081Z,74.21
2024-04-13T09:12:29.707Z,74.13
2024-04-13T09:14:58.649Z,74.48
2024-04-13T09:17:26.382Z,74.58
2024-04-13T09:19:54.049Z,74.56
2024-04-13T09:22:21.764Z,74.50
2024-04-13T09:24:49.380Z,74.54
2024-04-13T09:27:17.006Z,74.43
2024-04-13T09:29:44.694Z,74.59
2024-04-13T09:32:23.066Z,74.41
2024-04-13T09:34:50.931Z,74.49
2024-04-13T09:37:18.603Z,74.46
2024-04-13T09:39:46.612Z,74.31
2024-04-13T09:42:14.631Z,74.39
2024-04-13T09:44:42.178Z,74.37
2024-04-13T09:47:09.326Z,74.45
2024-04-13T09:49:36.508Z,74.60
2024-04-13T09:52:03.693Z,74.55
2024-04-13T09:54:33.006Z,74.54
2024-04-13T09:57:01.651Z,74.15
2024-04-13T09:59:33.588Z,74.56
2024-04-13T10:02:00.801Z,74.39
2024-04-13T10:04:28.404Z,74.35
2024-04-13T10:07:01.826Z,74.37
2024-04-13T10:09:33.441Z,74.56
2024-04-13T10:12:03.147Z,74.55
2024-04-13T10:14:32.280Z,74.19
2024-04-13T10:17:03.122Z,73.36
2024-04-13T10:19:30.722Z,73.55
2024-04-13T10:21:59.631Z,73.30
2024-04-13T10:24:29.989Z,73.23
2024-04-13T10:27:10.199Z,72.76
2024-04-13T10:29:43.436Z,72.99
2024-04-13T10:32:24.047Z,73.04
2024-04-13T10:34:52.659Z,72.70
2024-04-13T10:37:28.292Z,72.31
2024-04-13T10:40:00.217Z,72.27
2024-04-13T10:42:44.179Z,72.39
2024-04-13T10:45:21.958Z,72.32
2024-04-13T10:47:49.668Z,71.98
2024-04-13T10:50:18.707Z,71.96
2024-04-13T10:52:47.079Z,72.14
2024-04-13T10:55:15.433Z,72.13
2024-04-13T10:57:43.427Z,72.12
2024-04-13T11:00:11.506Z,71.74
2024-04-13T11:02:40.130Z,71.11
2024-04-13T11:05:08.688Z,71.21
2024-04-13T11:07:38.736Z,71.41
2024-04-13T11:10:06.562Z,70.99
2024-04-13T11:12:33.805Z,71.07
2024-04-13T11:15:01.197Z,70.96
2024-04-13T11:17:28.705Z,70.38
2024-04-13T11:19:56.312Z,70.88
2024-04-13T11:22:24.032Z,70.97
2024-04-13T11:24:51.395Z,70.77
2024-04-13T11:27:19.859Z,70.86
2024-04-13T11:29:47.168Z,71.00
2024-04-13T11:32:14.760Z,70.87
2024-04-13T11:34:42.166Z,71.19
2024-04-13T11:37:13.776Z,71.18
2024-04-13T11:39:43.570Z,70.95
2024-04-13T11:42:15.116Z,70.67
2024-04-13T11:44:42.996Z,69.97
2024-04-13T11:47:10.477Z,69.20
2024-04-13T11:49:41.961Z,69.28
2024-04-13T11:52:18.893Z,69.28
2024-04-13T11:54:48.546Z,69.64
2024-04-13T11:57:15.976Z,68.99
2024-04-13T11:59:43.453Z,69.31
2024-04-13T12:02:10.576Z,69.16
2024-04-13T12:04:37.962Z,68.75
2024-04-13T12:07:05.993Z,68.99
2024-04-13T12:09:33.816Z,68.90
2024-04-13T12:12:02.922Z,68.61
2024-04-13T12:14:39.668Z,68.35
2024-04-13T12:17:17.940Z,67.83
2024-04-13T12:19:46.223Z,68.25
2024-04-13T12:22:13.573Z,68.39
2024-04-13T12:24:40.954Z,68.48
2024-04-13T12:27:08.596Z,68.75
2024-04-13T12:29:36.001Z,68.53
2024-04-13T12:32:04.894Z,68.02
2024-04-13T12:34:32.070Z,68.03
2024-04-13T12:37:00.132Z,67.48
2024-04-13T12:39:29.437Z,67.62
2024-04-13T12:41:59.699Z,67.98
2024-04-13T12:44:31.529Z,67.56
2024-04-13T12:46:58.851Z,67.87
2024-04-13T12:49:27.020Z,67.66
2024-04-13T12:51:54.500Z,67.59
2024-04-13T12:54:22.904Z,67.89
2024-04-13T12:56:50.122Z,67.62
2024-04-13T12:59:17.145Z,67.09
2024-04-13T13:01:44.231Z,66.92
2024-04-13T13:04:11.923Z,66.61
2024-04-13T13:06:39.962Z,66.39
2024-04-13T13:09:07.891Z,66.01
2024-04-13T13:11:35.160Z,66.76
2024-04-13T13:14:02.487Z,65.37
2024-04-13T13:16:29.610Z,65.13
2024-04-13T13:18:57.198Z,65.29
2024-04-13T13:21:25.112Z,65.47
2024-04-13T13:23:52.590Z,65.30
2024-04-13T13:26:20.384Z,65.07
2024-04-13T13:28:50.749Z,65.74
2024-04-13T13:31:20.325Z,66.21
2024-04-13T13:33:47.470Z,66.34
2024-04-13T13:36:14.918Z,67.08
2024-04-13T13:38:42.118Z,66.95
2024-04-13T13:41:10.024Z,66.50
2024-04-13T13:43:36.841Z,66.14
2024-04-13T13:46:04.173Z,66.27
2024-04-13T13:48:32.337Z,66.44
2024-04-13T13:50:59.825Z,66.56
2024-04-13T13:53:27.359Z,65.82
2024-04-13T13:55:54.826Z,65.45
2024-04-13T13:58:22.667Z,65.49
2024-04-13T14:00:50.232Z,65.75
2024-04-13T14:03:18.051Z,65.45
2024-04-13T14:05:45.599Z,65.51
2024-04-13T14:08:12.544Z,65.10
2024-04-13T14:10:40.288Z,65.11
2024-04-13T14:13:07.737Z,64.75
2024-04-13T14:15:38.314Z,64.91
2024-04-13T14:18:06.729Z,65.06
2024-04-13T14:20:33.742Z,65.12
2024-04-13T14:23:00.710Z,65.29
2024-04-13T14:25:28.412Z,64.76
2024-04-13T14:27:55.641Z,65.15
2024-04-13T14:30:23.596Z,65.43
2024-04-13T14:32:51.127Z,65.06
2024-04-13T14:35:18.474Z,65.31
2024-04-13T14:37:46.593Z,65.65
2024-04-13T14:40:13.998Z,65.64
2024-04-13T14:42:41.542Z,65.61
2024-04-13T14:45:08.630Z,65.98
2024-04-13T14:47:35.627Z,65.02
2024-04-13T14:50:09.572Z,65.29
2024-04-13T14:52:37.437Z,65.17
2024-04-13T14:55:08.870Z,64.53
2024-04-13T14:57:36.233Z,65.40
2024-04-13T15:00:05.031Z,64.81
2024-04-13T15:05:00.583Z,64.38
2024-04-13T15:07:27.734Z,64.04
2024-04-13T15:09:54.727Z,64.03
2024-04-13T15:12:22.209Z,64.02
2024-04-13T15:14:52.846Z,63.86
2024-04-13T15:17:20.068Z,64.07
2024-04-13T15:19:47.722Z,63.62
2024-04-13T15:22:14.782Z,63.34
2024-04-13T15:24:41.987Z,63.90
2024-04-13T15:27:09.139Z,63.41
2024-04-13T15:29:36.393Z,63.20
2024-04-13T15:32:04.045Z,62.94
2024-04-13T15:34:31.621Z,62.92
2024-04-13T15:36:58.804Z,62.96
2024-04-13T15:39:26.231Z,62.79
2024-04-13T15:41:53.720Z,61.85
2024-04-13T15:44:21.577Z,62.86
2024-04-13T15:46:48.673Z,63.19
2024-04-13T15:49:15.923Z,62.27
2024-04-13T15:51:43.619Z,62.33
2024-04-13T15:54:13.284Z,62.64
2024-04-13T15:56:43.564Z,62.28
2024-04-13T15:59:11.121Z,62.24
2024-04-13T16:01:38.341Z,61.99
2024-04-13T16:04:08.400Z,62.50
2024-04-13T16:06:36.161Z,61.97
2024-04-13T16:09:03.479Z,62.71
2024-04-13T16:11:30.517Z,61.72
2024-04-13T16:13:58.983Z,61.61
2024-04-13T16:16:32.566Z,61.34
2024-04-13T16:19:02.377Z,62.08
2024-04-13T16:21:31.014Z,61.79
2024-04-13T16:23:58.238Z,62.09
2024-04-13T16:26:25.282Z,62.31
2024-04-13T16:28:52.720Z,61.70
2024-04-13T16:31:19.631Z,62.22
2024-04-13T16:33:46.610Z,62.93
2024-04-13T16:36:13.850Z,62.92
2024-04-13T16:38:41.427Z,62.19
2024-04-13T16:41:08.536Z,63.73
2024-04-13T16:43:36.116Z,63.28
2024-04-13T16:46:03.807Z,63.46
2024-04-13T16:48:31.551Z,63.02
2024-04-13T16:51:03.221Z,62.75
2024-04-13T16:53:33.383Z,63.46
2024-04-13T16:56:02.466Z,63.32
2024-04-13T16:58:29.741Z,62.99
2024-04-13T17:00:57.322Z,63.38
2024-04-13T17:03:24.668Z,62.83
2024-04-13T17:05:52.290Z,63.10
2024-04-13T17:08:19.300Z,63.49
2024-04-13T17:10:47.104Z,63.08
2024-04-13T17:13:14.285Z,63.94
2024-04-13T17:15:41.991Z,63.98
2024-04-13T17:18:09.496Z,64.10
2024-04-13T17:20:37.128Z,64.43
2024-04-13T17:23:04.378Z,64.13
2024-04-13T17:25:31.945Z,64.29
2024-04-13T17:28:02.810Z,64.15
2024-04-13T17:30:30.030Z,63.68
2024-04-13T17:32:57.409Z,63.64
2024-04-13T17:35:24.678Z,64.11
2024-04-13T17:37:51.938Z,63.92
2024-04-13T17:40:19.216Z,63.20
2024-04-13T17:42:46.296Z,63.56
2024-04-13T17:45:16.284Z,63.05
2024-04-13T17:47:43.285Z,63.06
2024-04-13T17:50:10.815Z,64.01
2024-04-13T17:52:37.946Z,63.02
2024-04-13T17:55:07.807Z,63.11
2024-04-13T17:57:36.339Z,62.92
2024-04-13T18:00:04.349Z,63.31
2024-04-13T18:02:31.458Z,63.40
2024-04-13T18:04:59.442Z,63.31
2024-04-13T18:07:27.100Z,63.70
2024-04-13T18:09:54.423Z,63.54
2024-04-13T18:12:21.702Z,64.06
2024-04-13T18:14:48.640Z,63.64
2024-04-13T18:17:16.106Z,63.76
2024-04-13T18:19:43.382Z,63.18
2024-04-13T18:22:11.270Z,63.60
2024-04-13T18:24:38.995Z,63.23
2024-04-13T18:27:06.110Z,62.98
2024-04-13T18:29:33.629Z,63.60
2024-04-13T18:32:01.133Z,63.11
2024-04-13T18:34:28.226Z,63.31
2024-04-13T18:36:55.442Z,63.12
2024-04-13T18:39:28.601Z,63.21
2024-04-13T18:41:55.985Z,63.05
2024-04-13T18:44:23.192Z,63.32
2024-04-13T18:46:50.183Z,63.32
2024-04-13T18:49:17.575Z,62.90
2024-04-13T18:51:47.430Z,63.37
2024-04-13T18:54:14.953Z,63.16
2024-04-13T18:56:42.128Z,63.26
2024-04-13T18:59:09.175Z,63.21
2024-04-13T19:01:36.611Z,63.38
2024-04-13T19:04:05.780Z,63.54
2024-04-13T19:06:34.122Z,63.91
2024-04-13T19:09:03.263Z,63.66
2024-04-13T19:11:32.844Z,63.87
2024-04-13T19:14:00.135Z,64.00
2024-04-13T19:16:27.710Z,63.98
2024-04-13T19:18:55.868Z,63.73
2024-04-13T19:21:23.860Z,64.05
2024-04-13T19:23:51.020Z,64.09
2024-04-13T19:26:21.244Z,63.68
2024-04-13T19:28:49.317Z,64.39
2024-04-13T19:31:16.895Z,64.20
2024-04-13T19:33:44.586Z,64.50
2024-04-13T19:36:12.037Z,64.34
2024-04-13T19:38:39.529Z,64.63
2024-04-13T19:41:06.734Z,64.42
2024-04-13T19:43:34.503Z,64.54
2024-04-13T19:46:02.035Z,64.67
2024-04-13T19:48:29.332Z,64.63
2024-04-13T19:50:56.477Z,64.40
2024-04-13T19:53:24.031Z,64.79
2024-04-13T19:55:52.066Z,65.04
2024-04-13T19:58:19.097Z,65.13
2024-04-13T20:00:46.493Z,65.17
2024-04-13T20:03:13.762Z,65.35
2024-04-13T20:05:41.505Z,65.38
2024-04-13T20:08:08.883Z,65.39
2024-04-13T20:10:36.481Z,65.42
2024-04-13T20:13:04.180Z,65.59
2024-04-13T20:15:50.012Z,65.54
2024-04-13T20:18:36.360Z,65.59
2024-04-13T20:21:04.208Z,65.58
2024-04-13T20:23:31.552Z,65.80
2024-04-13T20:25:58.807Z,65.79
2024-04-13T20:28:26.448Z,65.81
2024-04-13T20:30:53.920Z,65.97
2024-04-13T20:33:24.218Z,66.03
2024-04-13T20:35:52.578Z,65.77
2024-04-13T20:38:20.131Z,66.02
2024-04-13T20:40:47.300Z,66.10
2024-04-13T20:43:14.385Z,66.28
2024-04-13T20:45:41.918Z,66.30
2024-04-13T20:48:10.312Z,66.23
2024-04-13T20:50:40.053Z,66.38
2024-04-13T20:53:08.721Z,66.31
2024-04-13T20:55:35.977Z,66.32
2024-04-13T20:58:03.502Z,66.40
2024-04-13T21:00:32.469Z,66.64
2024-04-13T21:02:59.747Z,66.63
2024-04-13T21:05:34.681Z,66.63
2024-04-13T21:08:03.304Z,66.38
2024-04-13T21:10:31.650Z,66.74
2024-04-13T21:13:01.564Z,66.51
2024-04-13T21:15:35.352Z,66.55
2024-04-13T21:18:05.099Z,66.84
2024-04-13T21:20:32.623Z,66.71
2024-04-13T21:22:59.957Z,67.04
2024-04-13T21:25:26.998Z,66.98
2024-04-13T21:27:54.102Z,67.18
2024-04-13T21:30:21.322Z,67.02
2024-04-13T21:32:48.622Z,67.19
2024-04-13T21:35:16.545Z,67.06
2024-04-13T21:37:43.418Z,67.06
2024-04-13T21:40:11.039Z,67.23
2024-04-13T21:42:39.184Z,67.46
2024-04-13T21:45:07.022Z,67.20
2024-04-13T21:47:34.505Z,67.20
2024-04-13T21:50:02.732Z,67.48
2024-04-13T21:52:31.320Z,67.28
2024-04-13T21:54:58.746Z,67.48
2024-04-13T21:57:25.960Z,67.49
2024-04-13T21:59:53.455Z,67.65
2024-04-13T22:02:20.376Z,67.77
2024-04-13T22:04:47.655Z,67.87
2024-04-13T22:07:15.022Z,67.59
2024-04-13T22:09:42.436Z,67.70
2024-04-13T22:12:09.866Z,67.67
2024-04-13T22:14:37.094Z,67.78
2024-04-13T22:17:04.746Z,67.84
2024-04-13T22:19:33.563Z,67.97
2024-04-13T22:22:01.326Z,67.91
2024-04-13T22:24:29.274Z,67.91
2024-04-13T22:26:57.172Z,68.05
2024-04-13T22:29:24.639Z,67.95
2024-04-13T22:31:51.687Z,68.09
2024-04-13T22:34:18.848Z,67.73
2024-04-13T22:36:46.623Z,67.56
2024-04-13T22:39:17.033Z,67.74
2024-04-13T22:41:45.397Z,67.84
2024-04-13T22:44:12.406Z,67.84
2024-04-13T22:46:39.723Z,67.85
2024-04-13T22:49:07.380Z,67.74
2024-04-13T22:51:35.252Z,67.58
2024-04-13T22:54:02.613Z,67.58
2024-04-13T22:56:30.313Z,67.88
2024-04-13T22:58:57.815Z,67.75
2024-04-13T23:01:25.419Z,67.59
2024-04-13T23:03:53.248Z,67.55
2024-04-13T23:06:20.259Z,67.92
2024-04-13T23:08:47.245Z,68.02
2024-04-13T23:11:14.547Z,67.96
2024-04-13T23:13:44.213Z,68.13
2024-04-13T23:16:11.863Z,68.15
2024-04-13T23:18:39.261Z,68.22
2024-04-13T23:21:08.401Z,68.49
2024-04-13T23:23:36.842Z,68.36
2024-04-13T23:26:04.287Z,68.23
2024-04-13T23:28:31.382Z,68.36
2024-04-13T23:30:59.173Z,68.35
2024-04-13T23:33:26.393Z,68.20
2024-04-13T23:36:01.400Z,68.15
2024-04-13T23:38:29.836Z,67.96
2024-04-13T23:40:57.003Z,67.51
2024-04-13T23:43:24.779Z,67.86
2024-04-13T23:46:02.364Z,66.24
2024-04-13T23:48:29.710Z,65.81
2024-04-13T23:50:57.503Z,61.91
2024-04-13T23:53:26.230Z,60.48
2024-04-13T23:55:54.114Z,59.21
2024-04-13T23:58:23.217Z,59.46
